sensor_id;sensor_type;location;lat;lon;timestamp;pressure;altitude;pressure_sealevel;temperature;humidity
20015;BME280;61787;42.022;23.078;2023-06-26T00:00:23;96440.25;;;20.98;100.00
20015;BME280;61787;42.022;23.078;2023-06-26T00:01:25;96444.50;;;20.99;100.00
20015;BME280;61787;42.022;23.078;2023-06-26T00:02:31;96444.50;;;20.99;100.00
20015;BME280;61787;42.022;23.078;2023-06-26T00:03:34;96450.25;;;21.04;100.00
20015;BME280;61787;42.022;23.078;2023-06-26T00:04:36;96454.06;;;21.14;100.00
20015;BME280;61787;42.022;23.078;2023-06-26T00:05:38;96442.28;;;21.20;100.00
20015;BME280;61787;42.022;23.078;2023-06-26T00:06:41;96446.03;;;21.30;100.00
20015;BME280;61787;42.022;23.078;2023-06-26T00:07:43;96442.84;;;21.35;100.00
20015;BME280;61787;42.022;23.078;2023-06-26T00:08:44;96438.28;;;21.29;100.00
20015;BME280;61787;42.022;23.078;2023-06-26T00:09:47;96436.06;;;21.20;100.00
20015;BME280;61787;42.022;23.078;2023-06-26T00:10:48;96443.06;;;21.21;100.00
20015;BME280;61787;42.022;23.078;2023-06-26T00:11:52;96443.91;;;21.18;100.00
20015;BME280;61787;42.022;23.078;2023-06-26T00:12:54;96444.69;;;21.15;100.00
20015;BME280;61787;42.022;23.078;2023-06-26T00:13:56;96441.69;;;21.06;100.00
20015;BME280;61787;42.022;23.078;2023-06-26T00:14:58;96439.41;;;21.01;100.00
20015;BME280;61787;42.022;23.078;2023-06-26T00:15:59;96439.81;;;20.99;100.00
20015;BME280;61787;42.022;23.078;2023-06-26T00:17:04;96437.81;;;21.03;100.00
20015;BME280;61787;42.022;23.078;2023-06-26T00:18:06;96438.59;;;21.04;100.00
20015;BME280;61787;42.022;23.078;2023-06-26T00:19:07;96435.41;;;21.09;100.00
20015;BME280;61787;42.022;23.078;2023-06-26T00:20:09;96428.44;;;21.08;100.00
20015;BME280;61787;42.022;23.078;2023-06-26T00:21:11;96436.59;;;21.08;100.00
20015;BME280;61787;42.022;23.078;2023-06-26T00:22:13;96430.69;;;21.13;100.00
20015;BME280;61787;42.022;23.078;2023-06-26T00:23:16;96437.72;;;21.10;100.00
20015;BME280;61787;42.022;23.078;2023-06-26T00:24:18;96428.00;;;21.09;100.00
20015;BME280;61787;42.022;23.078;2023-06-26T00:25:20;96433.78;;;21.15;100.00
20015;BME280;61787;42.022;23.078;2023-06-26T00:26:21;96429.81;;;21.23;100.00
20015;BME280;61787;42.022;23.078;2023-06-26T00:27:23;96436.69;;;21.31;100.00
20015;BME280;61787;42.022;23.078;2023-06-26T00:28:25;96429.53;;;21.41;100.00
20015;BME280;61787;42.022;23.078;2023-06-26T00:29:26;96430.25;;;21.45;100.00
20015;BME280;61787;42.022;23.078;2023-06-26T00:30:28;96437.91;;;21.53;100.00
20015;BME280;61787;42.022;23.078;2023-06-26T00:31:29;96430.50;;;21.54;99.99
20015;BME280;61787;42.022;23.078;2023-06-26T00:32:31;96435.28;;;21.46;100.00
20015;BME280;61787;42.022;23.078;2023-06-26T00:33:33;96436.78;;;21.24;100.00
20015;BME280;61787;42.022;23.078;2023-06-26T00:34:35;96436.16;;;21.13;100.00
20015;BME280;61787;42.022;23.078;2023-06-26T00:35:37;96441.41;;;20.97;100.00
20015;BME280;61787;42.022;23.078;2023-06-26T00:36:38;96435.72;;;20.84;100.00
20015;BME280;61787;42.022;23.078;2023-06-26T00:37:40;96434.22;;;20.79;100.00
20015;BME280;61787;42.022;23.078;2023-06-26T00:38:41;96436.59;;;20.77;100.00
20015;BME280;61787;42.022;23.078;2023-06-26T00:39:43;96435.84;;;20.73;100.00
20015;BME280;61787;42.022;23.078;2023-06-26T00:40:45;96431.97;;;20.74;100.00
20015;BME280;61787;42.022;23.078;2023-06-26T00:41:46;96439.78;;;20.72;100.00
20015;BME280;61787;42.022;23.078;2023-06-26T00:42:49;96438.31;;;20.64;100.00
20015;BME280;61787;42.022;23.078;2023-06-26T00:43:51;96439.59;;;20.56;100.00
20015;BME280;61787;42.022;23.078;2023-06-26T00:44:53;96436.53;;;20.51;100.00
20015;BME280;61787;42.022;23.078;2023-06-26T00:45:55;96437.69;;;20.50;100.00
20015;BME280;61787;42.022;23.078;2023-06-26T00:46:56;96432.94;;;20.57;100.00
20015;BME280;61787;42.022;23.078;2023-06-26T00:47:59;96432.47;;;20.66;100.00
20015;BME280;61787;42.022;23.078;2023-06-26T00:49:02;96436.59;;;20.77;100.00
20015;BME280;61787;42.022;23.078;2023-06-26T00:50:05;96437.22;;;20.89;100.00
20015;BME280;61787;42.022;23.078;2023-06-26T00:51:07;96437.88;;;21.00;100.00
20015;BME280;61787;42.022;23.078;2023-06-26T00:52:09;96434.69;;;21.05;100.00
20015;BME280;61787;42.022;23.078;2023-06-26T00:53:11;96428.81;;;21.06;100.00
20015;BME280;61787;42.022;23.078;2023-06-26T00:54:13;96435.41;;;21.09;100.00
20015;BME280;61787;42.022;23.078;2023-06-26T00:55:21;96432.25;;;21.14;100.00
20015;BME280;61787;42.022;23.078;2023-06-26T00:56:23;96439.34;;;21.08;100.00
20015;BME280;61787;42.022;23.078;2023-06-26T00:57:25;96434.03;;;20.94;100.00
20015;BME280;61787;42.022;23.078;2023-06-26T00:58:26;96426.44;;;20.81;100.00
20015;BME280;61787;42.022;23.078;2023-06-26T00:59:28;96432.88;;;20.64;100.00
20015;BME280;61787;42.022;23.078;2023-06-26T01:00:30;96428.75;;;20.49;100.00
20015;BME280;61787;42.022;23.078;2023-06-26T01:01:32;96426.84;;;20.46;100.00
20015;BME280;61787;42.022;23.078;2023-06-26T01:02:33;96426.16;;;20.38;100.00
20015;BME280;61787;42.022;23.078;2023-06-26T01:03:35;96425.31;;;20.45;100.00
20015;BME280;61787;42.022;23.078;2023-06-26T01:04:41;96423.75;;;20.44;100.00
20015;BME280;61787;42.022;23.078;2023-06-26T01:05:49;96422.19;;;20.47;100.00
20015;BME280;61787;42.022;23.078;2023-06-26T01:06:51;96419.41;;;20.50;100.00
20015;BME280;61787;42.022;23.078;2023-06-26T01:07:53;96428.25;;;20.61;100.00
20015;BME280;61787;42.022;23.078;2023-06-26T01:08:58;96423.44;;;20.72;100.00
20015;BME280;61787;42.022;23.078;2023-06-26T01:10:00;96427.97;;;20.82;100.00
20015;BME280;61787;42.022;23.078;2023-06-26T01:11:02;96422.41;;;20.90;100.00
20015;BME280;61787;42.022;23.078;2023-06-26T01:12:04;96416.16;;;20.93;100.00
20015;BME280;61787;42.022;23.078;2023-06-26T01:13:06;96416.06;;;21.00;100.00
20015;BME280;61787;42.022;23.078;2023-06-26T01:14:07;96419.09;;;21.05;100.00
20015;BME280;61787;42.022;23.078;2023-06-26T01:15:09;96423.78;;;21.05;100.00
20015;BME280;61787;42.022;23.078;2023-06-26T01:16:11;96417.53;;;21.08;100.00
20015;BME280;61787;42.022;23.078;2023-06-26T01:17:14;96417.56;;;21.04;100.00
20015;BME280;61787;42.022;23.078;2023-06-26T01:18:17;96415.28;;;20.99;100.00
20015;BME280;61787;42.022;23.078;2023-06-26T01:19:24;96409.06;;;20.99;100.00
20015;BME280;61787;42.022;23.078;2023-06-26T01:20:27;96416.06;;;21.00;100.00
20015;BME280;61787;42.022;23.078;2023-06-26T01:21:29;96423.00;;;21.04;100.00
20015;BME280;61787;42.022;23.078;2023-06-26T01:24:09;96428.44;;;21.08;100.00
20015;BME280;61787;42.022;23.078;2023-06-26T01:26:59;96424.59;;;21.02;100.00
20015;BME280;61787;42.022;23.078;2023-06-26T01:28:02;96421.44;;;21.07;100.00
20015;BME280;61787;42.022;23.078;2023-06-26T01:29:06;96435.41;;;21.09;100.00
20015;BME280;61787;42.022;23.078;2023-06-26T01:30:09;96424.44;;;21.16;100.00
20015;BME280;61787;42.022;23.078;2023-06-26T01:31:13;96421.34;;;21.14;100.00
20015;BME280;61787;42.022;23.078;2023-06-26T01:32:15;96425.63;;;21.15;100.00
20015;BME280;61787;42.022;23.078;2023-06-26T01:33:17;96420.88;;;21.19;100.00
20015;BME280;61787;42.022;23.078;2023-06-26T01:34:19;96421.97;;;21.25;100.00
20015;BME280;61787;42.022;23.078;2023-06-26T01:35:21;96421.50;;;21.30;99.81
20015;BME280;61787;42.022;23.078;2023-06-26T01:36:23;96428.09;;;21.33;99.19
20015;BME280;61787;42.022;23.078;2023-06-26T01:37:25;96419.84;;;21.36;98.82
20015;BME280;61787;42.022;23.078;2023-06-26T01:38:26;96406.22;;;21.36;98.67
20015;BME280;61787;42.022;23.078;2023-06-26T01:39:28;96410.81;;;21.16;99.60
20015;BME280;61787;42.022;23.078;2023-06-26T01:40:30;96410.19;;;21.01;100.00
20015;BME280;61787;42.022;23.078;2023-06-26T01:41:32;96403.75;;;20.88;100.00
20015;BME280;61787;42.022;23.078;2023-06-26T01:42:34;96406.91;;;20.87;100.00
20015;BME280;61787;42.022;23.078;2023-06-26T01:44:56;96402.88;;;20.64;100.00
20015;BME280;61787;42.022;23.078;2023-06-26T01:46:09;96409.50;;;20.63;100.00
20015;BME280;61787;42.022;23.078;2023-06-26T01:47:16;96405.63;;;20.64;100.00
20015;BME280;61787;42.022;23.078;2023-06-26T01:48:23;96404.78;;;20.67;100.00
20015;BME280;61787;42.022;23.078;2023-06-26T01:50:48;96404.78;;;20.67;100.00
20015;BME280;61787;42.022;23.078;2023-06-26T01:53:24;96407.25;;;20.58;100.00
20015;BME280;61787;42.022;23.078;2023-06-26T01:54:30;96404.97;;;20.53;100.00
20015;BME280;61787;42.022;23.078;2023-06-26T01:55:40;96407.75;;;20.50;100.00
20015;BME280;61787;42.022;23.078;2023-06-26T01:56:46;96401.63;;;20.38;100.00
20015;BME280;61787;42.022;23.078;2023-06-26T01:57:52;96402.91;;;20.27;100.00
20015;BME280;61787;42.022;23.078;2023-06-26T01:58:56;96399.09;;;20.21;100.00
20015;BME280;61787;42.022;23.078;2023-06-26T01:59:59;96399.88;;;20.18;100.00
20015;BME280;61787;42.022;23.078;2023-06-26T02:01:00;96399.16;;;20.14;100.00
20015;BME280;61787;42.022;23.078;2023-06-26T02:02:02;96396.84;;;20.12;100.00
20015;BME280;61787;42.022;23.078;2023-06-26T02:03:08;96392.97;;;20.10;100.00
20015;BME280;61787;42.022;23.078;2023-06-26T02:04:10;96395.63;;;20.17;100.00
20015;BME280;61787;42.022;23.078;2023-06-26T02:05:12;96394.38;;;20.25;100.00
20015;BME280;61787;42.022;23.078;2023-06-26T02:06:13;96392.34;;;20.36;100.00
20015;BME280;61787;42.022;23.078;2023-06-26T02:07:15;96395.75;;;20.43;100.00
20015;BME280;61787;42.022;23.078;2023-06-26T02:08:18;96396.44;;;20.51;100.00
20015;BME280;61787;42.022;23.078;2023-06-26T02:09:20;96390.13;;;20.58;100.00
20015;BME280;61787;42.022;23.078;2023-06-26T02:10:21;96399.00;;;20.65;100.00
20015;BME280;61787;42.022;23.078;2023-06-26T02:11:23;96396.25;;;20.65;100.00
20015;BME280;61787;42.022;23.078;2023-06-26T02:12:25;96398.59;;;20.67;100.00
20015;BME280;61787;42.022;23.078;2023-06-26T02:13:26;96391.22;;;20.64;100.00
20015;BME280;61787;42.022;23.078;2023-06-26T02:14:28;96391.06;;;20.44;100.00
20015;BME280;61787;42.022;23.078;2023-06-26T02:15:29;96395.06;;;20.36;100.00
20015;BME280;61787;42.022;23.078;2023-06-26T02:16:31;96395.94;;;20.26;100.00
20015;BME280;61787;42.022;23.078;2023-06-26T02:17:33;96387.81;;;20.19;100.00
20015;BME280;61787;42.022;23.078;2023-06-26T02:18:34;96387.09;;;20.15;100.00
20015;BME280;61787;42.022;23.078;2023-06-26T02:19:36;96384.78;;;20.13;100.00
20015;BME280;61787;42.022;23.078;2023-06-26T02:20:38;96391.38;;;20.12;100.00
20015;BME280;61787;42.022;23.078;2023-06-26T02:21:41;96381.22;;;20.16;100.00
20015;BME280;61787;42.022;23.078;2023-06-26T02:22:42;96386.66;;;20.16;100.00
20015;BME280;61787;42.022;23.078;2023-06-26T02:23:44;96385.16;;;20.15;100.00
20015;BME280;61787;42.022;23.078;2023-06-26T02:24:46;96390.56;;;20.19;100.00
20015;BME280;61787;42.022;23.078;2023-06-26T02:25:47;96383.56;;;20.18;100.00
20015;BME280;61787;42.022;23.078;2023-06-26T02:26:49;96386.66;;;20.16;100.00
20015;BME280;61787;42.022;23.078;2023-06-26T02:27:51;96386.66;;;20.20;100.00
20015;BME280;61787;42.022;23.078;2023-06-26T02:28:52;96386.66;;;20.16;100.00
20015;BME280;61787;42.022;23.078;2023-06-26T02:29:54;96383.59;;;20.14;100.00
20015;BME280;61787;42.022;23.078;2023-06-26T02:30:56;96388.28;;;20.14;100.00
20015;BME280;61787;42.022;23.078;2023-06-26T02:31:58;96379.03;;;20.04;100.00
20015;BME280;61787;42.022;23.078;2023-06-26T02:32:59;96379.88;;;19.97;100.00
20015;BME280;61787;42.022;23.078;2023-06-26T02:34:01;96379.50;;;19.95;100.00
20015;BME280;61787;42.022;23.078;2023-06-26T02:35:03;96379.88;;;19.97;100.00
20015;BME280;61787;42.022;23.078;2023-06-26T02:36:05;96384.53;;;19.97;100.00
20015;BME280;61787;42.022;23.078;2023-06-26T02:37:06;96386.97;;;19.88;100.00
20015;BME280;61787;42.022;23.078;2023-06-26T02:38:09;96393.16;;;19.92;100.00
20015;BME280;61787;42.022;23.078;2023-06-26T02:39:10;96393.94;;;19.92;100.00
20015;BME280;61787;42.022;23.078;2023-06-26T02:40:12;96388.09;;;19.90;100.00
20015;BME280;61787;42.022;23.078;2023-06-26T02:41:14;96393.97;;;19.85;100.00
20015;BME280;61787;42.022;23.078;2023-06-26T02:42:15;96395.97;;;19.85;100.00
20015;BME280;61787;42.022;23.078;2023-06-26T02:43:17;96401.00;;;19.83;100.00
20015;BME280;61787;42.022;23.078;2023-06-26T02:44:19;96400.97;;;19.86;100.00
20015;BME280;61787;42.022;23.078;2023-06-26T02:45:20;96393.25;;;19.81;100.00
20015;BME280;61787;42.022;23.078;2023-06-26T02:46:22;96397.13;;;19.84;100.00
20015;BME280;61787;42.022;23.078;2023-06-26T02:47:24;96397.03;;;19.91;100.00
20015;BME280;61787;42.022;23.078;2023-06-26T02:48:25;96395.41;;;20.00;100.00
20015;BME280;61787;42.022;23.078;2023-06-26T02:49:27;96397.31;;;20.04;100.00
20015;BME280;61787;42.022;23.078;2023-06-26T02:50:29;96398.44;;;20.10;100.00
20015;BME280;61787;42.022;23.078;2023-06-26T02:51:32;96394.53;;;20.11;100.00
20015;BME280;61787;42.022;23.078;2023-06-26T02:52:34;96396.84;;;20.12;100.00
20015;BME280;61787;42.022;23.078;2023-06-26T02:53:36;96396.88;;;20.09;100.00
20015;BME280;61787;42.022;23.078;2023-06-26T02:54:37;96401.50;;;20.12;100.00
20015;BME280;61787;42.022;23.078;2023-06-26T02:55:39;96396.81;;;20.16;100.00
20015;BME280;61787;42.022;23.078;2023-06-26T02:56:40;96398.78;;;20.12;100.00
20015;BME280;61787;42.022;23.078;2023-06-26T02:57:48;96391.88;;;20.04;100.00
20015;BME280;61787;42.022;23.078;2023-06-26T02:58:50;96398.50;;;20.02;100.00
20015;BME280;61787;42.022;23.078;2023-06-26T02:59:51;96400.78;;;20.08;100.00
20015;BME280;61787;42.022;23.078;2023-06-26T03:00:53;96392.97;;;20.10;100.00
20015;BME280;61787;42.022;23.078;2023-06-26T03:01:55;96399.22;;;20.07;100.00
20015;BME280;61787;42.022;23.078;2023-06-26T03:02:56;96404.59;;;20.14;100.00
20015;BME280;61787;42.022;23.078;2023-06-26T03:03:58;96406.88;;;20.19;100.00
20015;BME280;61787;42.022;23.078;2023-06-26T03:05:02;96399.84;;;20.21;100.00
20015;BME280;61787;42.022;23.078;2023-06-26T03:06:04;96406.06;;;20.22;100.00
20015;BME280;61787;42.022;23.078;2023-06-26T03:07:05;96403.72;;;20.24;100.00
20015;BME280;61787;42.022;23.078;2023-06-26T03:08:07;96399.03;;;20.24;100.00
20015;BME280;61787;42.022;23.078;2023-06-26T03:09:09;96406.78;;;20.29;100.00
20015;BME280;61787;42.022;23.078;2023-06-26T03:10:11;96406.75;;;20.33;100.00
20015;BME280;61787;42.022;23.078;2023-06-26T03:11:12;96405.13;;;20.39;100.00
20015;BME280;61787;42.022;23.078;2023-06-26T03:12:14;96407.81;;;20.42;100.00
20015;BME280;61787;42.022;23.078;2023-06-26T03:13:16;96399.63;;;20.42;100.00
20015;BME280;61787;42.022;23.078;2023-06-26T03:14:17;96404.63;;;20.51;100.00
20015;BME280;61787;42.022;23.078;2023-06-26T03:15:19;96402.63;;;20.55;100.00
20015;BME280;61787;42.022;23.078;2023-06-26T03:16:21;96406.38;;;20.65;100.00
20015;BME280;61787;42.022;23.078;2023-06-26T03:17:22;96405.53;;;20.71;100.00
20015;BME280;61787;42.022;23.078;2023-06-26T03:18:24;96410.81;;;20.85;100.00
20015;BME280;61787;42.022;23.078;2023-06-26T03:19:26;96407.69;;;20.83;100.00
20015;BME280;61787;42.022;23.078;2023-06-26T03:20:27;96409.25;;;20.84;100.00
20015;BME280;61787;42.022;23.078;2023-06-26T03:21:29;96404.56;;;20.85;100.00
20015;BME280;61787;42.022;23.078;2023-06-26T03:22:31;96408.44;;;20.88;100.00
20015;BME280;61787;42.022;23.078;2023-06-26T03:23:33;96404.50;;;20.92;100.00
20015;BME280;61787;42.022;23.078;2023-06-26T03:24:34;96405.16;;;21.00;100.00
20015;BME280;61787;42.022;23.078;2023-06-26T03:25:36;96405.06;;;21.07;100.00
20015;BME280;61787;42.022;23.078;2023-06-26T03:26:38;96404.19;;;21.13;100.00
20015;BME280;61787;42.022;23.078;2023-06-26T03:27:39;96406.53;;;21.15;100.00
20015;BME280;61787;42.022;23.078;2023-06-26T03:28:41;96399.06;;;21.19;99.87
20015;BME280;61787;42.022;23.078;2023-06-26T03:29:46;96411.81;;;21.25;98.84
20015;BME280;61787;42.022;23.078;2023-06-26T03:30:48;96405.59;;;21.25;99.20
20015;BME280;61787;42.022;23.078;2023-06-26T03:31:49;96411.75;;;21.29;99.03
20015;BME280;61787;42.022;23.078;2023-06-26T03:32:51;96411.75;;;21.29;98.86
20015;BME280;61787;42.022;23.078;2023-06-26T03:33:53;96412.97;;;21.28;98.46
20015;BME280;61787;42.022;23.078;2023-06-26T03:34:55;96404.19;;;21.13;98.26
20015;BME280;61787;42.022;23.078;2023-06-26T03:35:56;96407.00;;;21.06;99.31
20015;BME280;61787;42.022;23.078;2023-06-26T03:36:58;96414.41;;;21.06;98.95
20015;BME280;61787;42.022;23.078;2023-06-26T03:38:01;96413.59;;;21.09;99.28
20015;BME280;61787;42.022;23.078;2023-06-26T03:39:03;96408.56;;;21.07;99.63
20015;BME280;61787;42.022;23.078;2023-06-26T03:40:06;96413.84;;;20.91;100.00
20015;BME280;61787;42.022;23.078;2023-06-26T03:41:07;96411.72;;;20.75;100.00
20015;BME280;61787;42.022;23.078;2023-06-26T03:42:09;96417.47;;;20.51;100.00
20015;BME280;61787;42.022;23.078;2023-06-26T03:43:11;96417.09;;;20.49;100.00
20015;BME280;61787;42.022;23.078;2023-06-26T03:44:12;96418.13;;;20.62;100.00
20015;BME280;61787;42.022;23.078;2023-06-26T03:45:14;96419.50;;;20.73;100.00
20015;BME280;61787;42.022;23.078;2023-06-26T03:46:16;96411.97;;;20.84;100.00
20015;BME280;61787;42.022;23.078;2023-06-26T03:47:17;96411.44;;;20.97;100.00
20015;BME280;61787;42.022;23.078;2023-06-26T03:48:20;96411.28;;;21.07;100.00
20015;BME280;61787;42.022;23.078;2023-06-26T03:49:21;96410.44;;;21.14;100.00
20015;BME280;61787;42.022;23.078;2023-06-26T03:50:23;96415.06;;;21.17;100.00
20015;BME280;61787;42.022;23.078;2023-06-26T03:51:25;96421.97;;;21.25;100.00
20015;BME280;61787;42.022;23.078;2023-06-26T03:52:26;96417.97;;;21.33;100.00
20015;BME280;61787;42.022;23.078;2023-06-26T03:53:28;96413.94;;;21.41;99.75
20015;BME280;61787;42.022;23.078;2023-06-26T03:54:30;96417.34;;;21.49;99.22
20015;BME280;61787;42.022;23.078;2023-06-26T03:55:31;96410.97;;;21.55;98.69
20015;BME280;61787;42.022;23.078;2023-06-26T03:56:33;96408.16;;;21.62;98.39
20015;BME280;61787;42.022;23.078;2023-06-26T03:57:35;96411.09;;;21.72;98.07
20015;BME280;61787;42.022;23.078;2023-06-26T03:58:36;96418.97;;;21.69;97.10
20015;BME280;61787;42.022;23.078;2023-06-26T03:59:38;96407.56;;;21.75;97.10
20015;BME280;61787;42.022;23.078;2023-06-26T04:00:39;96418.00;;;21.80;97.32
20015;BME280;61787;42.022;23.078;2023-06-26T04:01:42;96406.94;;;21.87;96.54
20015;BME280;61787;42.022;23.078;2023-06-26T04:02:44;96415.78;;;21.98;96.37
20015;BME280;61787;42.022;23.078;2023-06-26T04:03:46;96413.63;;;22.09;96.77
20015;BME280;61787;42.022;23.078;2023-06-26T04:04:48;96415.03;;;22.17;96.27
20015;BME280;61787;42.022;23.078;2023-06-26T04:05:49;96417.16;;;22.29;95.65
20015;BME280;61787;42.022;23.078;2023-06-26T04:06:51;96422.41;;;22.40;94.63
20015;BME280;61787;42.022;23.078;2023-06-26T04:07:53;96417.56;;;22.47;94.16
20015;BME280;61787;42.022;23.078;2023-06-26T04:08:54;96426.00;;;22.57;94.03
20015;BME280;61787;42.022;23.078;2023-06-26T04:09:57;96424.66;;;22.65;93.28
20015;BME280;61787;42.022;23.078;2023-06-26T04:10:58;96417.94;;;22.69;92.49
20015;BME280;61787;42.022;23.078;2023-06-26T04:12:00;96415.28;;;22.46;91.09
20015;BME280;61787;42.022;23.078;2023-06-26T04:13:02;96416.56;;;22.18;91.73
20015;BME280;61787;42.022;23.078;2023-06-26T04:14:04;96424.66;;;22.02;92.79
20015;BME280;61787;42.022;23.078;2023-06-26T04:15:06;96423.84;;;22.05;93.31
20015;BME280;61787;42.022;23.078;2023-06-26T04:16:08;96422.03;;;22.18;93.60
20015;BME280;61787;42.022;23.078;2023-06-26T04:17:09;96425.13;;;22.20;92.13
20015;BME280;61787;42.022;23.078;2023-06-26T04:18:11;96417.41;;;22.15;91.02
20015;BME280;61787;42.022;23.078;2023-06-26T04:19:13;96422.81;;;22.19;91.50
20015;BME280;61787;42.022;23.078;2023-06-26T04:20:15;96424.00;;;22.37;91.55
20015;BME280;61787;42.022;23.078;2023-06-26T04:21:17;96426.13;;;22.49;91.32
20015;BME280;61787;42.022;23.078;2023-06-26T04:22:19;96425.84;;;22.64;90.67
20015;BME280;61787;42.022;23.078;2023-06-26T04:23:21;96424.00;;;22.80;89.12
20015;BME280;61787;42.022;23.078;2023-06-26T04:24:22;96419.84;;;22.92;89.40
20015;BME280;61787;42.022;23.078;2023-06-26T04:25:24;96419.25;;;23.01;88.54
20015;BME280;61787;42.022;23.078;2023-06-26T04:26:30;96427.25;;;23.11;88.68
20015;BME280;61787;42.022;23.078;2023-06-26T04:27:32;96430.16;;;23.20;87.09
20015;BME280;61787;42.022;23.078;2023-06-26T04:28:37;96423.00;;;23.26;86.41
20015;BME280;61787;42.022;23.078;2023-06-26T04:29:39;96418.22;;;23.30;84.24
20015;BME280;61787;42.022;23.078;2023-06-26T04:30:41;96427.09;;;23.34;85.16
20015;BME280;61787;42.022;23.078;2023-06-26T04:31:42;96425.13;;;23.35;86.17
20015;BME280;61787;42.022;23.078;2023-06-26T04:32:48;96429.63;;;23.45;86.30
20015;BME280;61787;42.022;23.078;2023-06-26T04:33:50;96424.78;;;23.53;86.17
20015;BME280;61787;42.022;23.078;2023-06-26T04:34:52;96432.28;;;23.65;85.84
20015;BME280;61787;42.022;23.078;2023-06-26T04:35:54;96423.91;;;23.56;84.79
20015;BME280;61787;42.022;23.078;2023-06-26T04:36:55;96421.84;;;23.44;84.35
20015;BME280;61787;42.022;23.078;2023-06-26T04:37:57;96418.22;;;23.30;85.77
20015;BME280;61787;42.022;23.078;2023-06-26T04:38:59;96427.41;;;23.20;86.39
20015;BME280;61787;42.022;23.078;2023-06-26T04:40:00;96426.59;;;23.23;86.80
20015;BME280;61787;42.022;23.078;2023-06-26T04:41:02;96432.06;;;23.39;86.16
20015;BME280;61787;42.022;23.078;2023-06-26T04:42:05;96433.63;;;23.41;85.37
20015;BME280;61787;42.022;23.078;2023-06-26T04:43:08;96433.56;;;23.44;85.55
20015;BME280;61787;42.022;23.078;2023-06-26T04:44:09;96424.56;;;23.44;85.01
20015;BME280;61787;42.022;23.078;2023-06-26T04:45:11;96428.22;;;23.37;85.69
20015;BME280;61787;42.022;23.078;2023-06-26T04:46:12;96427.31;;;23.44;85.64
20015;BME280;61787;42.022;23.078;2023-06-26T04:47:14;96431.06;;;23.50;83.58
20015;BME280;61787;42.022;23.078;2023-06-26T04:48:16;96430.16;;;23.56;84.04
20015;BME280;61787;42.022;23.078;2023-06-26T04:49:18;96432.13;;;23.56;84.14
20015;BME280;61787;42.022;23.078;2023-06-26T04:50:21;96425.69;;;23.46;83.90
20015;BME280;61787;42.022;23.078;2023-06-26T04:51:26;96431.47;;;23.32;83.60
20015;BME280;61787;42.022;23.078;2023-06-26T04:52:28;96429.63;;;23.09;84.96
20015;BME280;61787;42.022;23.078;2023-06-26T04:53:30;96429.28;;;23.07;85.85
20015;BME280;61787;42.022;23.078;2023-06-26T04:54:31;96426.47;;;23.11;86.16
20015;BME280;61787;42.022;23.078;2023-06-26T04:55:34;96428.09;;;23.08;85.71
20015;BME280;61787;42.022;23.078;2023-06-26T04:56:39;96424.22;;;23.06;85.77
20015;BME280;61787;42.022;23.078;2023-06-26T04:57:41;96421.22;;;23.00;86.18
20015;BME280;61787;42.022;23.078;2023-06-26T04:58:43;96418.50;;;23.00;85.87
20015;BME280;61787;42.022;23.078;2023-06-26T04:59:44;96422.22;;;22.90;86.42
20015;BME280;61787;42.022;23.078;2023-06-26T05:00:46;96419.28;;;22.81;87.35
20015;BME280;61787;42.022;23.078;2023-06-26T05:01:48;96429.03;;;22.82;87.05
20015;BME280;61787;42.022;23.078;2023-06-26T05:02:51;96420.97;;;22.75;86.68
20015;BME280;61787;42.022;23.078;2023-06-26T05:04:01;96431.22;;;22.71;87.03
20015;BME280;61787;42.022;23.078;2023-06-26T05:05:03;96422.63;;;22.69;87.03
20015;BME280;61787;42.022;23.078;2023-06-26T05:06:05;96425.75;;;22.71;87.43
20015;BME280;61787;42.022;23.078;2023-06-26T05:07:10;96420.34;;;22.67;86.98
20015;BME280;61787;42.022;23.078;2023-06-26T05:08:22;96422.59;;;22.72;87.16
20015;BME280;61787;42.022;23.078;2023-06-26T05:09:24;96420.47;;;22.80;87.51
20015;BME280;61787;42.022;23.078;2023-06-26T05:10:26;96424.75;;;22.81;86.09
20015;BME280;61787;42.022;23.078;2023-06-26T05:11:29;96423.28;;;22.76;85.08
20015;BME280;61787;42.022;23.078;2023-06-26T05:12:30;96430.81;;;22.69;85.75
20015;BME280;61787;42.022;23.078;2023-06-26T05:13:32;96419.56;;;22.67;86.71
20015;BME280;61787;42.022;23.078;2023-06-26T05:14:34;96422.28;;;22.67;85.75
20015;BME280;61787;42.022;23.078;2023-06-26T05:15:35;96417.16;;;22.69;86.35
20015;BME280;61787;42.022;23.078;2023-06-26T05:16:37;96415.59;;;22.68;86.68
20015;BME280;61787;42.022;23.078;2023-06-26T05:17:39;96426.22;;;22.66;86.02
20015;BME280;61787;42.022;23.078;2023-06-26T05:18:40;96420.88;;;22.59;87.04
20015;BME280;61787;42.022;23.078;2023-06-26T05:19:42;96421.56;;;22.63;86.88
20015;BME280;61787;42.022;23.078;2023-06-26T05:20:44;96424.31;;;22.63;87.00
20015;BME280;61787;42.022;23.078;2023-06-26T05:21:47;96418.09;;;22.62;86.51
20015;BME280;61787;42.022;23.078;2023-06-26T05:22:49;96420.19;;;22.54;86.30
20015;BME280;61787;42.022;23.078;2023-06-26T05:23:53;96420.09;;;22.58;87.23
20015;BME280;61787;42.022;23.078;2023-06-26T05:24:58;96426.53;;;22.71;86.94
20015;BME280;61787;42.022;23.078;2023-06-26T05:26:02;96423.91;;;22.84;86.84
20015;BME280;61787;42.022;23.078;2023-06-26T05:27:05;96425.91;;;23.00;86.00
20015;BME280;61787;42.022;23.078;2023-06-26T05:28:08;96417.66;;;23.03;84.93
20015;BME280;61787;42.022;23.078;2023-06-26T05:29:12;96419.44;;;23.10;84.20
20015;BME280;61787;42.022;23.078;2023-06-26T05:30:14;96420.06;;;23.17;83.45